createdAt,value
2022-09-05T00:00:02.359Z,8.32
2022-09-05T00:06:51.564Z,7.30
2022-09-05T00:13:47.815Z,6.85
2022-09-05T00:16:48.620Z,5.95
2022-09-05T00:36:57.680Z,1.42
2022-09-05T00:39:30.964Z,1.10
2022-09-05T00:46:27.170Z,1.50
2022-09-05T00:53:16.790Z,1.40
2022-09-05T00:55:52.848Z,1.40
2022-09-05T00:58:37.259Z,1.00
2022-09-05T01:01:20.559Z,1.30
2022-09-05T01:04:01.251Z,1.20
2022-09-05T01:10:17.729Z,1.10
2022-09-05T01:20:51.500Z,1.10
2022-09-05T01:28:39.929Z,0.77
2022-09-05T01:30:42.755Z,0.90
2022-09-05T01:33:58.076Z,0.90
2022-09-05T01:45:03.650Z,1.23
2022-09-05T01:47:40.765Z,0.93
2022-09-05T01:50:20.453Z,1.02
2022-09-05T01:53:21.673Z,0.90
2022-09-05T02:00:05.857Z,1.15
2022-09-05T02:03:37.885Z,0.90
2022-09-05T02:16:40.493Z,0.70
2022-09-05T02:19:18.486Z,0.98
2022-09-05T02:21:59.089Z,1.20
2022-09-05T02:24:35.869Z,1.13
2022-09-05T02:27:31.852Z,1.02
2022-09-05T02:31:24.094Z,0.90
2022-09-05T02:42:19.590Z,1.40
2022-09-05T02:45:15.328Z,1.30
2022-09-05T02:54:58.636Z,1.23
2022-09-05T02:58:07.380Z,1.05
2022-09-05T03:00:48.378Z,0.88
2022-09-05T03:03:35.055Z,1.10
2022-09-05T03:07:05.529Z,1.10
2022-09-05T03:10:17.998Z,1.33
2022-09-05T03:13:25.848Z,1.10
2022-09-05T03:16:31.069Z,1.08
2022-09-05T03:19:47.449Z,1.00
2022-09-05T03:23:04.312Z,0.93
2022-09-05T03:26:17.668Z,0.88
2022-09-05T03:29:29.451Z,1.20
2022-09-05T03:32:57.420Z,1.17
2022-09-05T03:36:14.625Z,1.30
2022-09-05T03:39:28.183Z,1.10
2022-09-05T03:42:31.071Z,1.23
2022-09-05T03:45:37.273Z,1.02
2022-09-05T03:48:33.666Z,1.17
2022-09-05T03:57:08.679Z,1.23
2022-09-05T04:09:09.917Z,1.08
2022-09-05T04:11:44.394Z,0.90
2022-09-05T04:14:22.062Z,0.82
2022-09-05T04:16:55.028Z,1.00
2022-09-05T04:19:29.040Z,1.15
2022-09-05T04:22:30.027Z,1.02
2022-09-05T04:29:15.930Z,0.90
2022-09-05T04:32:10.751Z,1.10
2022-09-05T04:38:46.072Z,1.13
2022-09-05T04:41:18.685Z,1.23
2022-09-05T04:44:15.656Z,1.20
2022-09-05T04:51:11.528Z,1.45
2022-09-05T04:54:23.838Z,1.10
2022-09-05T04:57:14.096Z,1.30
2022-09-05T05:06:02.647Z,1.17
2022-09-05T05:13:13.326Z,1.42
2022-09-05T05:18:59.279Z,1.23
2022-09-05T05:21:33.748Z,1.20
2022-09-05T05:28:22.795Z,1.10
2022-09-05T05:31:01.679Z,1.27
2022-09-05T05:34:41.758Z,1.38
2022-09-05T05:37:20.336Z,2.40
2022-09-05T05:40:50.851Z,3.70
2022-09-05T05:43:41.746Z,4.68
2022-09-05T05:46:17.708Z,4.70
2022-09-05T05:48:57.233Z,4.72
2022-09-05T05:52:02.224Z,4.30
2022-09-05T05:55:50.396Z,4.22
2022-09-05T05:58:15.538Z,5.95
2022-09-05T06:01:09.434Z,6.63
2022-09-05T06:04:45.163Z,6.90
2022-09-05T06:07:28.901Z,6.22
2022-09-05T06:14:50.807Z,4.40
2022-09-05T06:15:00.624Z,5.18
2022-09-05T06:17:36.913Z,6.20
2022-09-05T06:22:07.805Z,3.97
2022-09-05T06:24:24.597Z,2.38
2022-09-05T06:27:21.439Z,2.10
2022-09-05T06:30:00.146Z,2.35
2022-09-05T06:37:25.615Z,2.00
2022-09-05T06:40:06.330Z,1.90
2022-09-05T06:50:24.491Z,3.30
2022-09-05T06:53:42.036Z,3.17
2022-09-05T06:56:32.405Z,3.05
2022-09-05T06:59:55.342Z,3.35
2022-09-05T07:07:11.235Z,2.72
2022-09-05T07:09:59.683Z,2.30
2022-09-05T07:17:44.539Z,2.85
2022-09-05T07:20:27.245Z,2.70
2022-09-05T07:28:19.566Z,2.00
2022-09-05T07:30:36.625Z,1.70
2022-09-05T07:33:41.146Z,1.65
2022-09-05T07:36:13.671Z,1.95
2022-09-05T07:38:54.914Z,2.00
2022-09-05T07:41:31.081Z,1.90
2022-09-05T07:44:07.592Z,1.80
2022-09-05T07:46:41.096Z,2.00
2022-09-05T07:49:14.836Z,1.73
2022-09-05T07:56:59.866Z,1.88
2022-09-05T07:57:03.158Z,1.50
2022-09-05T07:59:23.393Z,1.60
2022-09-05T08:02:21.060Z,1.60
2022-09-05T08:04:50.360Z,1.70
2022-09-05T08:07:47.842Z,1.30
2022-09-05T08:10:17.265Z,1.50
2022-09-05T08:13:24.788Z,1.30
2022-09-05T08:16:15.209Z,1.52
2022-09-05T08:18:50.487Z,1.65
2022-09-05T08:21:27.120Z,1.70
2022-09-05T08:24:26.767Z,1.50
2022-09-05T08:27:16.394Z,2.60
2022-09-05T08:30:25.086Z,1.60
2022-09-05T08:33:23.205Z,1.52
2022-09-05T08:36:01.013Z,1.40
2022-09-05T08:38:40.319Z,1.73
2022-09-05T08:41:19.561Z,1.70
2022-09-05T08:46:47.735Z,2.53
2022-09-05T08:47:49.665Z,2.10
2022-09-05T08:50:29.294Z,1.60
2022-09-05T08:53:26.899Z,1.60
2022-09-05T08:56:10.518Z,1.60
2022-09-05T08:59:31.813Z,1.67
2022-09-05T09:02:47.842Z,1.50
2022-09-05T09:05:17.561Z,1.40
2022-09-05T09:12:50.136Z,1.77
2022-09-05T09:15:26.169Z,0.90
2022-09-05T09:17:55.687Z,7.25
2022-09-05T09:28:47.456Z,0.43
2022-09-05T09:30:57.633Z,4.65
2022-09-05T09:33:38.416Z,0.95
2022-09-05T09:36:21.834Z,1.30
2022-09-05T09:39:11.903Z,0.95
2022-09-05T09:42:32.736Z,1.50
2022-09-05T09:45:27.440Z,0.95
2022-09-05T09:48:18.489Z,1.08
2022-09-05T09:51:02.635Z,0.57
2022-09-05T09:54:04.850Z,0.50
2022-09-05T09:57:19.645Z,0.82
2022-09-05T10:00:07.746Z,0.70
2022-09-05T10:10:00.907Z,0.55
2022-09-05T10:10:45.886Z,0.50
2022-09-05T10:10:57.451Z,2.42
2022-09-05T10:13:23.974Z,0.47
2022-09-05T10:20:39.608Z,0.65
2022-09-05T10:23:44.692Z,7.57
2022-09-05T10:26:50.811Z,6.85
2022-09-05T10:29:44.457Z,1.70
2022-09-05T10:35:10.779Z,0.70
2022-09-05T10:35:22.502Z,0.57
2022-09-05T10:38:10.708Z,1.60
2022-09-05T10:41:21.727Z,0.95
2022-09-05T10:43:42.486Z,0.50
2022-09-05T10:46:40.072Z,0.90
2022-09-05T10:49:54.612Z,0.60
2022-09-05T10:52:36.770Z,1.20
2022-09-05T10:55:19.228Z,1.77
2022-09-05T10:57:59.753Z,0.70
2022-09-05T11:02:23.991Z,0.70
2022-09-05T11:03:57.264Z,1.42
2022-09-05T11:06:48.184Z,2.10
2022-09-05T11:09:31.127Z,0.50
2022-09-05T11:16:51.169Z,1.20
2022-09-05T11:19:30.041Z,0.70
2022-09-05T11:26:29.067Z,0.60
2022-09-05T11:29:03.363Z,0.70
2022-09-05T11:32:33.123Z,3.20
2022-09-05T11:39:52.873Z,1.10
2022-09-05T11:46:31.877Z,0.80
2022-09-05T11:49:32.740Z,0.45
2022-09-05T11:52:44.666Z,0.65
2022-09-05T11:55:53.211Z,0.60
2022-09-05T11:58:50.111Z,0.95
2022-09-05T12:01:42.194Z,0.70
2022-09-05T12:04:36.336Z,0.60
2022-09-05T12:07:39.143Z,0.60
2022-09-05T12:10:47.960Z,0.90
2022-09-05T12:14:31.173Z,0.80
2022-09-05T12:17:10.257Z,0.30
2022-09-05T12:19:57.346Z,0.52
2022-09-05T12:23:49.441Z,0.70
2022-09-05T12:27:41.161Z,0.50
2022-09-05T12:29:29.663Z,0.47
2022-09-05T12:33:59.348Z,0.40
2022-09-05T12:36:11.511Z,0.60
2022-09-05T12:40:55.074Z,0.40
2022-09-05T12:41:42.657Z,0.45
2022-09-05T12:44:42.556Z,0.43
2022-09-05T12:47:20.148Z,0.40
2022-09-05T12:50:03.346Z,0.40
2022-09-05T12:52:52.002Z,0.50
2022-09-05T12:55:27.003Z,0.70
2022-09-05T13:02:25.124Z,0.40
2022-09-05T13:03:14.058Z,0.47
2022-09-05T13:04:31.128Z,0.50
2022-09-05T13:07:05.932Z,0.47
2022-09-05T13:11:03.756Z,0.60
2022-09-05T13:14:56.315Z,0.50
2022-09-05T13:15:27.950Z,0.40
2022-09-05T13:18:04.313Z,0.40
2022-09-05T13:20:37.154Z,0.47
2022-09-05T13:23:16.021Z,0.45
2022-09-05T13:25:50.728Z,0.43
2022-09-05T13:28:23.469Z,0.30
2022-09-05T13:35:05.353Z,0.40
2022-09-05T13:38:10.557Z,0.40
2022-09-05T13:38:11.134Z,0.40
2022-09-05T13:40:04.433Z,0.50
2022-09-05T13:43:11.758Z,0.40
2022-09-05T13:46:12.355Z,0.40
2022-09-05T13:51:44.086Z,0.40
2022-09-05T13:54:41.575Z,0.40
2022-09-05T13:57:31.636Z,0.40
2022-09-05T14:00:53.422Z,0.50
2022-09-05T14:05:05.228Z,0.40
2022-09-05T14:07:51.656Z,0.45
2022-09-05T14:11:09.439Z,0.40
2022-09-05T14:15:08.413Z,0.38
2022-09-05T14:20:36.365Z,0.30
2022-09-05T14:27:32.455Z,0.38
2022-09-05T14:30:39.996Z,0.30
2022-09-05T14:38:05.798Z,0.40
2022-09-05T14:41:12.303Z,0.50
2022-09-05T14:44:27.966Z,0.40
2022-09-05T14:47:36.583Z,0.40
2022-09-05T14:50:30.294Z,0.30
2022-09-05T14:58:03.390Z,0.38
2022-09-05T15:02:54.609Z,0.40
2022-09-05T15:03:09.560Z,0.40
2022-09-05T15:05:50.431Z,0.40
2022-09-05T15:12:14.375Z,0.50
2022-09-05T15:16:59.801Z,0.40
2022-09-05T15:20:05.469Z,0.50
2022-09-05T15:22:37.979Z,0.40
2022-09-05T15:25:17.758Z,0.47
2022-09-05T15:27:48.154Z,0.43
2022-09-05T15:30:19.869Z,0.40
2022-09-05T15:33:25.923Z,0.40
2022-09-05T15:40:24.457Z,0.40
2022-09-05T15:42:57.096Z,0.40
2022-09-05T15:46:03.450Z,0.57
2022-09-05T15:48:36.443Z,0.40
2022-09-05T15:51:18.747Z,0.60
2022-09-05T15:53:54.081Z,0.60
2022-09-05T16:01:30.552Z,0.60
2022-09-05T16:08:05.493Z,0.63
2022-09-05T16:10:33.561Z,0.50
2022-09-05T16:10:40.967Z,0.50
2022-09-05T16:13:59.554Z,0.40
2022-09-05T16:23:30.904Z,0.45
2022-09-05T16:28:18.172Z,0.55
2022-09-05T16:30:47.561Z,0.50
2022-09-05T16:37:44.308Z,0.40
2022-09-05T16:40:20.292Z,0.40
2022-09-05T16:52:25.172Z,0.80
2022-09-05T16:56:06.387Z,1.60
2022-09-05T16:58:41.042Z,1.55
2022-09-05T17:01:54.887Z,1.10
2022-09-05T17:05:11.645Z,1.60
2022-09-05T17:08:08.783Z,0.60
2022-09-05T17:10:57.360Z,1.05
2022-09-05T17:13:44.695Z,0.93
2022-09-05T17:16:21.014Z,1.10
2022-09-05T17:19:37.455Z,1.10
2022-09-05T17:26:17.525Z,1.30
2022-09-05T17:29:31.938Z,1.08
2022-09-05T17:29:36.097Z,0.90
2022-09-05T17:34:25.956Z,1.40
2022-09-05T17:37:20.977Z,1.45
2022-09-05T17:40:00.837Z,1.42
2022-09-05T17:43:06.208Z,0.77
2022-09-05T17:46:10.595Z,0.57
2022-09-05T17:49:18.347Z,0.70
2022-09-05T17:56:34.071Z,2.28
2022-09-05T17:59:04.486Z,1.77
2022-09-05T18:07:15.363Z,1.58
2022-09-05T18:10:12.117Z,1.55
2022-09-05T18:13:39.737Z,1.30
2022-09-05T18:21:12.219Z,0.80
2022-09-05T18:28:05.259Z,0.60
2022-09-05T18:30:45.324Z,0.80
2022-09-05T18:37:52.365Z,1.05
2022-09-05T18:40:40.147Z,0.60
2022-09-05T18:43:39.658Z,0.80
2022-09-05T18:46:14.283Z,0.60
2022-09-05T18:49:44.975Z,1.10
2022-09-05T18:52:03.286Z,2.03
2022-09-05T18:56:13.551Z,1.85
2022-09-05T18:58:30.316Z,1.70
2022-09-05T19:01:24.393Z,2.03
2022-09-05T19:04:03.460Z,2.08
2022-09-05T19:07:07.814Z,2.42
2022-09-05T19:09:39.428Z,2.30
2022-09-05T19:13:32.123Z,2.00
2022-09-05T19:16:43.167Z,2.13
2022-09-05T19:19:41.450Z,2.25
2022-09-05T19:23:10.010Z,2.17
2022-09-05T19:26:12.940Z,2.20
2022-09-05T19:34:35.059Z,1.65
2022-09-05T19:36:59.991Z,1.95
2022-09-05T19:37:11.975Z,1.80
2022-09-05T19:47:27.754Z,1.73
2022-09-05T19:47:39.847Z,1.42
2022-09-05T19:47:43.039Z,1.52
2022-09-05T19:50:11.628Z,1.50
2022-09-05T19:52:42.960Z,1.40
2022-09-05T19:55:25.038Z,2.15
2022-09-05T19:58:19.034Z,1.90
2022-09-05T20:01:00.809Z,1.80
2022-09-05T20:03:38.177Z,1.65
2022-09-05T20:06:28.681Z,1.27
2022-09-05T20:09:17.097Z,1.98
2022-09-05T20:11:50.870Z,1.30
2022-09-05T20:14:25.678Z,1.40
2022-09-05T20:16:57.851Z,1.20
2022-09-05T20:19:33.654Z,1.40
2022-09-05T20:23:25.238Z,1.10
2022-09-05T20:25:57.726Z,1.50
2022-09-05T20:28:29.057Z,1.45
2022-09-05T20:31:04.056Z,1.25
2022-09-05T20:33:46.034Z,1.40
2022-09-05T20:43:07.872Z,1.60
2022-09-05T20:43:23.999Z,1.50
2022-09-05T20:43:32.446Z,1.70
2022-09-05T20:44:55.742Z,1.70
2022-09-05T20:54:04.395Z,1.35
2022-09-05T20:54:16.039Z,1.52
2022-09-05T20:54:16.434Z,1.50
2022-09-05T20:56:24.005Z,2.60
2022-09-05T21:03:29.473Z,2.30
2022-09-05T21:06:13.396Z,1.88
2022-09-05T21:08:42.968Z,2.40
2022-09-05T21:13:53.014Z,2.53
2022-09-05T21:16:27.987Z,2.30
2022-09-05T21:18:58.399Z,2.08
2022-09-05T21:21:30.228Z,2.42
2022-09-05T21:24:15.891Z,2.28
2022-09-05T21:26:48.811Z,2.20
2022-09-05T21:29:32.210Z,1.95
2022-09-05T21:32:10.832Z,1.80
2022-09-05T21:34:47.167Z,2.10
2022-09-05T21:37:18.367Z,1.80
2022-09-05T21:39:58.575Z,1.50
2022-09-05T21:47:10.529Z,1.67
2022-09-05T21:49:35.621Z,1.38
2022-09-05T21:53:48.296Z,1.30
2022-09-05T21:59:24.926Z,1.25
2022-09-05T21:59:40.106Z,1.10
2022-09-05T22:03:37.635Z,1.30
2022-09-05T22:06:09.684Z,1.08
2022-09-05T22:08:41.455Z,1.05
2022-09-05T22:12:31.374Z,1.00
2022-09-05T22:15:26.139Z,1.13
2022-09-05T22:17:59.661Z,1.42
2022-09-05T22:20:46.120Z,1.17
2022-09-05T22:23:31.552Z,1.40
2022-09-05T22:26:06.903Z,1.20
2022-09-05T22:28:46.515Z,1.17
2022-09-05T22:31:18.870Z,1.00
2022-09-05T22:33:58.399Z,1.10
2022-09-05T22:36:28.126Z,1.20
2022-09-05T22:38:57.097Z,1.10
2022-09-05T22:41:29.937Z,1.35
2022-09-05T22:44:15.151Z,1.10
2022-09-05T22:46:48.652Z,1.17
2022-09-05T22:49:18.725Z,1.10
2022-09-05T22:51:48.426Z,1.10
2022-09-05T22:54:57.402Z,1.30
2022-09-05T22:57:26.919Z,0.90
2022-09-05T22:59:55.782Z,1.15
2022-09-05T23:03:25.166Z,1.17
2022-09-05T23:05:56.027Z,0.90
2022-09-05T23:08:25.157Z,0.90
2022-09-05T23:10:54.492Z,0.93
2022-09-05T23:14:34.893Z,1.10
2022-09-05T23:17:04.043Z,1.08
2022-09-05T23:25:16.086Z,1.00
2022-09-05T23:27:53.399Z,1.20
2022-09-05T23:30:22.411Z,1.00
2022-09-05T23:34:12.907Z,1.10
2022-09-05T23:36:41.871Z,0.90
2022-09-05T23:39:10.909Z,0.90
2022-09-05T23:42:13.512Z,1.00
2022-09-05T23:44:53.695Z,1.00
2022-09-05T23:47:22.614Z,1.08
2022-09-05T23:49:51.680Z,1.13
2022-09-05T23:52:58.180Z,1.10
2022-09-05T23:55:27.391Z,1.00
2022-09-05T23:57:59.423Z,1.10
